Indian Springs, Nevada Weather observations

Data are for observation ending at time listed.
 Day   Time    Ave.   Ave.  Ave.  Vector   Max.   Stn.    Total    Solar   Ave.  
  of    of     Air    Rel.  Wind   Wind    Wind   Baro.  Precip.   Rad.    Soil  
Year   Day     Temp.  Hum.  Speed  Dir.    Gust   Pres.                    Temp. 
2014   (PST)    F      %     mph   deg.    mph     mb.     in.     W/m2     F   
------------------------------------------------------------------------------
 105   14:40   79.6    10    2.6   350      6.4   902.7    0.00     789    78.7
 105   14:50   79.9    10    2.9    26      7.5   902.7    0.00     611    79.0
 105   15:00   79.4    10    2.1   350      5.3   902.6    0.00     524    79.2
 105   15:10   79.8    10    2.7   276      9.5   902.5    0.00     557    79.4
 105   15:20   79.6    10    3.9   290      9.9   902.2    0.00     582    79.5
 105   15:30   79.6    10    4.6   294     10.6   902.2    0.00     652    79.6
 105   15:40   79.5    10    4.8   276     14.4   902.1    0.00     604    79.7
 105   15:50   79.2    10    5.2   273     11.1   902.0    0.00     578    79.8
 105   16:00   79.0     9    4.7   279     10.7   901.9    0.00     531    79.9
 105   16:10   79.4     9    5.1   291     11.8   901.7    0.00     486    80.0
 105   16:20   79.1     9    5.6   282     13.7   901.7    0.00     443    80.1
 105   16:30   78.8     9    6.0   283     12.2   901.5    0.00     402    80.2
 105   16:40   78.4    10    6.4   287     17.0   901.4    0.00     363    80.3
 105   16:50   78.2    10    5.4   286     13.1   901.2    0.00     196    80.3
 105   17:00   77.8    10    5.3   288     11.7   901.0    0.00      93    80.3
 105   17:10   77.3    10    5.2   277     12.8   900.9    0.00      53    80.3
 105   17:20   76.9    10    5.3   274     12.1   900.7    0.00      65    80.2
 105   17:30   76.7    10    5.0   280      9.9   900.5    0.00      43    80.1
 105   17:40   76.2    10    3.9   277      9.1   900.4    0.00      53    80.0
 105   17:50   75.9    10    4.3   288      9.6   900.2    0.00      42    79.8
 105   18:00   75.3    10    4.5   292     11.1   900.1    0.00      23    79.6
 105   18:10   74.5    10    2.5   282      8.3   899.9    0.00      16    79.4
 105   18:20   73.8    10    2.3   275      5.3   899.9    0.00       9    79.2
 105   18:30   72.9    10    2.1   271      4.0   899.8    0.00       3    79.0
 105   18:40   72.1    10    2.0   261      3.5   899.6    0.00       0    78.8
 105   18:50   71.8    10    1.4   247      3.3   899.7    0.00       0    78.6
 105   19:00   71.7    11    1.9   247      4.4   899.6    0.00       0    78.3
 105   19:10   70.4    11    2.8   220      5.1   899.6    0.00       0    78.1
 105   19:20   70.7    11    1.3   181      2.9   899.6    0.00       0    77.8
 105   19:30   69.9    11    0.5   151      2.3   899.6    0.00       0    77.6
 105   19:40   69.0    12    1.2   215      2.9   899.7    0.00       0    77.3
 105   19:50   69.0    12    0.7   221      2.6   899.7    0.00       0    77.1
 105   20:00   66.8    13    0.9    37      2.9   899.7    0.00       0    76.8
 105   20:10   65.5    13    1.9    65      5.7   899.7    0.00       0    76.6
 105   20:20   65.2    13    1.0   103      2.6   899.6    0.00       0    76.3
 105   20:30   64.7    13    1.0   305      3.1   899.6    0.00       0    76.1
 105   20:40   64.4    13    1.3   314      3.1   899.6    0.00       0    75.8
 105   20:50   64.0    12    2.1   255      3.7   899.5    0.00       0    75.6
 105   21:00   63.4    12    1.5   255      3.0   899.4    0.00       0    75.3
 105   21:10   62.9    13    1.5   257      3.2   899.4    0.00       0    75.1
 105   21:20   62.6    13    1.5   247      3.1   899.5    0.00       0    74.9
 105   21:30   61.7    13    1.9   229      3.7   899.3    0.00       0    74.6
 105   21:40   61.9    13    2.0   236      4.0   899.3    0.00       0    74.4
 105   21:50   60.7    13    0.9   242      1.6   899.2    0.00       0    74.2
 105   22:00   60.0    14    1.6   230      2.8   899.2    0.00       0    74.0
 105   22:10   58.7    14    1.0   237      2.4   899.2    0.00       0    73.8
 105   22:20   58.7    14    0.7   215      2.0   899.1    0.00       0    73.5
 105   22:30   58.6    15    0.2   213      1.2   899.0    0.00       0    73.3
 105   22:40   57.9    17    0.2   203      0.9   899.1    0.00       0    73.1
 105   22:50   57.1    17    0.6   193      1.5   899.0    0.00       0    72.9
 105   23:00   57.5    18    0.8   196      1.5   898.9    0.00       0    72.7
 105   23:10   58.4    16    0.8   197      1.6   898.8    0.00       0    72.4
 105   23:20   58.5    16    0.7   326      3.1   898.8    0.00       0    72.2
 105   23:30   57.6    16    0.6   305      1.8   898.9    0.00       0    72.0
 105   23:40   56.3    18    0.3   140      0.9   898.8    0.00       0    71.9
 105   23:50   54.8    19    0.2    85      1.2   898.6    0.00       0    71.7
 106    0:00   54.0    20    0.0     0      0.0   898.7    0.00       0    71.5
 106    0:10   54.1    20    0.7   208      1.8   898.6    0.00       0    71.3
 106    0:20   55.3    18    0.8   240      1.8   898.5    0.00       0    71.1
 106    0:30   55.8    17    0.4   221      2.0   898.4    0.00       0    70.9
 106    0:40   54.8    19    0.5   327      1.5   898.4    0.00       0    70.7
 106    0:50   54.2    19    0.4   233      1.8   898.4    0.00       0    70.5
 106    1:00   53.6    18    0.8   275      2.2   898.3    0.00       0    70.4
 106    1:10   52.9    18    0.9   203      2.2   898.2    0.00       0    70.2
 106    1:20   51.9    20    0.2   193      1.5   898.2    0.00       0    70.0
 106    1:30   52.7    19    1.0   233      2.4   898.1    0.00       0    69.8
 106    1:40   52.4    18    2.5   237      4.3   898.0    0.00       0    69.7
 106    1:50   54.5    17    2.3   248      3.4   898.1    0.00       0    69.5
 106    2:00   54.4    17    1.8   225      3.3   898.1    0.00       0    69.3
 106    2:10   53.5    18    0.6   238      2.3   898.1    0.00       0    69.2
 106    2:20   52.3    21    0.1   160      0.8   898.0    0.00       0    69.0
 106    2:30   51.2    23    0.1   163      0.8   897.9    0.00       0    68.8
 106    2:40   51.1    24    0.3   231      3.4   897.8    0.00       0    68.7
 106    2:50   51.8    20    1.1   263      3.2   897.8    0.00       0    68.5
 106    3:00   50.8    20    1.4   229      2.6   897.7    0.00       0    68.3
 106    3:10   51.9    21    0.6   246      2.2   897.7    0.00       0    68.2
 106    3:20   51.2    22    0.4   199      1.3   897.8    0.00       0    68.1
 106    3:30   49.7    24    0.2   174      1.1   897.8    0.00       0    67.9
 106    3:40   49.3    25    0.0   158      0.8   897.7    0.00       0    67.8
 106    3:50   49.5    25    0.0   112      1.0   897.7    0.00       0    67.6
 106    4:00   49.8    25    0.1   180      1.2   897.6    0.00       0    67.5
 106    4:10   50.0    26    0.3   350      1.3   897.6    0.00       0    67.3
 106    4:20   49.7    25    0.3   303      1.9   897.8    0.00       0    67.2
 106    4:30   48.3    24    0.2   196      1.1   897.9    0.00       0    67.0
 106    4:40   48.5    24    0.9   202      2.0   898.0    0.00       0    66.9
 106    4:50   49.1    25    0.3   355      2.3   898.1    0.00       0    66.8
 106    5:00   49.4    25    0.3   223      1.5   898.2    0.00       0    66.6
 106    5:10   49.8    23    1.2   234      2.3   898.4    0.00       1    66.5
 106    5:20   49.5    23    1.8   238      2.6   898.4    0.00       7    66.3
 106    5:30   50.3    23    1.9   246      3.2   898.4    0.00      20    66.2
 106    5:40   51.3    23    1.5   259      2.6   898.5    0.00      35    66.1
 106    5:50   52.0    25    1.0   323      2.3   898.8    0.00      40    65.9
 106    6:00   51.5    25    0.9   166      2.6   899.1    0.00      74    65.8
 106    6:10   52.4    26    0.6    94      2.3   899.2    0.00     161    65.7
 106    6:20   53.6    24    1.1    99      2.6   899.2    0.00     214    65.6
 106    6:30   54.4    23    1.2    68      2.9   899.3    0.00     203    65.4
 106    6:40   53.9    24    0.4    82      2.0   899.4    0.00     109    65.3
 106    6:50   53.9    25    0.7   209      1.8   899.6    0.00     137    65.3
 106    7:00   55.5    23    0.7   216      1.4   899.8    0.00     271    65.2
 106    7:10   58.1    20    1.5   243      2.6   900.2    0.00     384    65.2
 106    7:20   60.4    19    1.7   242      3.2   900.4    0.00     397    65.1
 106    7:30   63.1    18    0.8   280      2.6   900.5    0.00     472    65.1
 106    7:40   65.6    16    1.2   286      2.3   900.8    0.00     519    65.1
 106    7:50   66.8    14    1.1   307      2.6   901.1    0.00     551    65.3
 106    8:00   67.7    14    0.8   320      1.9   901.3    0.00     590    65.4
 106    8:10   69.3    13    0.9     6      2.3   901.6    0.00     635    65.6
 106    8:20   69.8    13    1.1    21      2.4   901.8    0.00     674    65.8
 106    8:30   69.7    13    1.3    24      3.3   902.1    0.00     709    66.1
 106    8:40   70.3    13    1.2     8      3.4   902.3    0.00     737    66.4
 106    8:50   71.5    13    1.5    18      3.8   902.3    0.00     769    66.7
 106    9:00   72.0    12    1.6    35      4.2   902.5    0.00     800    67.1
 106    9:10   72.9    12    2.0    18      5.3   902.7    0.00     830    67.4
 106    9:20   73.5    12    2.5    30      7.0   902.9    0.00     858    67.9
 106    9:30   74.2    12    2.3    26      5.8   903.2    0.00     882    68.3
 106    9:40   75.0    11    2.0    42      4.2   903.2    0.00     906    68.7
 106    9:50   74.9    11    3.1    36      7.0   903.4    0.00     930    69.2
 106   10:00   74.6    11    2.7   348      6.4   903.4    0.00     946    69.7
 106   10:10   75.7    11    1.8   342      5.4   903.4    0.00     959    70.1
 106   10:20   76.3    11    2.2   304      5.8   903.3    0.00     980    70.6
 106   10:30   76.5    11    2.0    18      5.6   903.3    0.00    1001    71.1
 106   10:40   77.1    10    2.1   125      5.3   903.3    0.00    1005    71.7
 106   10:50   77.3    11    1.9    72      5.2   903.2    0.00    1026    72.2
 106   11:00   77.3    11    2.8    52      8.3   903.0    0.00    1036    72.7
 106   11:10   78.2    11    2.5   303      6.4   903.1    0.00    1046    73.3
 106   11:20   77.7    11    2.6   282      5.8   903.1    0.00    1052    73.8
 106   11:30   79.1    11    2.9    53      6.1   902.9    0.00    1053    74.3
 106   11:40   80.1    11    1.2   314      3.8   902.8    0.00    1052    74.8
 106   11:50   80.6    11    1.5   119      4.1   902.8    0.00    1059    75.3
 106   12:00   79.8    11    3.2   201      9.8   902.6    0.00    1034    75.8
 106   12:10   79.0    12    4.1   175     10.4   902.4    0.00    1029    76.3
 106   12:20   79.9    12    4.1   306     11.2   902.3    0.00    1048    76.8
 106   12:30   81.2    11    4.5    29     10.1   902.1    0.00    1037    77.3
 106   12:40   81.1    11    3.7     3      9.9   902.0    0.00    1034    77.8
 106   12:50   81.1    12    3.0     0      7.8   901.8    0.00     998    78.3
 106   13:00   81.0    12    4.0   318     11.7   901.7    0.00     984    78.8
 106   13:10   81.4    12    2.5     2      6.9   901.6    0.00     995    79.2
 106   13:20   81.3    12    2.9   314      7.8   901.4    0.00     954    79.6
 106   13:30   82.3    11    3.7     0     10.5   901.5    0.00     945    80.0
 106   13:40   82.3    11    3.7    10      9.0   901.4    0.00     932    80.4
 106   13:50   82.0    11    3.1   354      8.1   901.2    0.00     922    80.8
 106   14:00   82.3    11    3.1   330     10.9   901.2    0.00     893    81.2
 106   14:10   82.1    11    3.0   332     10.4   901.0    0.00     202    81.5
 106   14:20   82.1    11    2.7   342      8.6   900.9    0.00     412    81.8
 106   14:30   82.9    11    3.8   304     10.3   900.8    0.00     805    82.1

Return to Indian Springs, Nevada graphs page.


Western Regional Climate Center,wrcc@dri.edu